Time;durP1;ratioP1;P1;durP2;ratioP2;P2;SDS_P1;SDS_P2;PMS_P1;PMS_P2;Temp;Humidity;BMP_temperature;BMP_pressure;BME280_temperature;BME280_humidity;BME280_pressure;Samples;Min_cycle;Max_cycle;Signal;HPM_P1;HPM_P2
2022/12/18 00:00:10;;;;;;;55.10;25.75;;;;;;;-7.00;74.14;100749.81;340057;29;1047;-79
2022/12/18 00:00:22;;;;;;;53.35;25.70;;;;;;;-7.08;73.73;100752.81;339169;29;1024;-78
2022/12/18 00:00:40;;;;;;;50.33;25.50;;;;;;;-7.17;73.77;100756.47;340800;29;1004;-77
2022/12/18 00:00:52;;;;;;;50.00;25.17;;;;;;;-7.18;74.00;100762.28;341128;29;1143;-78
2022/12/18 00:01:06;;;;;;;48.53;24.63;;;;;;;-7.19;73.76;100755.53;341293;29;1130;-77
2022/12/18 00:01:21;;;;;;;50.50;24.80;;;;;;;-7.24;73.98;100753.59;341031;29;1221;-77
2022/12/18 00:01:35;;;;;;;53.75;25.83;;;;;;;-7.28;74.46;100758.41;341001;29;1027;-78
2022/12/18 00:01:48;;;;;;;53.15;25.40;;;;;;;-7.27;74.50;100755.94;339780;29;1039;-78
2022/12/18 00:02:00;;;;;;;50.65;24.80;;;;;;;-7.25;74.47;100754.38;339705;29;1144;-77
2022/12/18 00:02:12;;;;;;;51.15;24.33;;;;;;;-7.23;74.92;100750.28;339662;29;1058;-77
2022/12/18 00:02:24;;;;;;;48.83;24.02;;;;;;;-7.27;74.84;100755.94;339919;29;1313;-78
2022/12/18 00:02:36;;;;;;;49.10;24.25;;;;;;;-7.25;74.96;100754.38;339675;29;1031;-77
2022/12/18 00:02:48;;;;;;;50.15;24.67;;;;;;;-7.25;75.17;100754.38;338612;29;1120;-78
2022/12/18 00:03:00;;;;;;;52.20;24.80;;;;;;;-7.20;75.01;100753.75;338681;29;1035;-78
2022/12/18 00:03:14;;;;;;;53.95;24.95;;;;;;;-7.18;75.04;100759.78;338783;29;1082;-78
2022/12/18 00:03:26;;;;;;;52.83;24.33;;;;;;;-7.16;74.99;100760.72;338787;29;1218;-77
2022/12/18 00:03:38;;;;;;;54.00;23.67;;;;;;;-7.16;74.94;100758.19;338756;29;1134;-76
2022/12/18 00:03:52;;;;;;;50.08;23.85;;;;;;;-7.18;75.11;100758.13;339396;29;1155;-78
2022/12/18 00:04:07;;;;;;;49.13;24.90;;;;;;;-7.16;75.10;100764.16;339976;29;1036;-76
2022/12/18 00:04:22;;;;;;;48.38;24.45;;;;;;;-7.16;74.81;100754.03;340960;29;1327;-78
2022/12/18 00:04:34;;;;;;;46.88;23.70;;;;;;;-7.12;75.00;100760.13;339993;29;1469;-79
2022/12/18 00:04:46;;;;;;;50.20;24.10;;;;;;;-7.15;74.98;100749.84;341579;29;754;-78
2022/12/18 00:04:58;;;;;;;51.45;24.50;;;;;;;-7.11;74.92;100756.81;341141;29;1104;-78
2022/12/18 00:05:10;;;;;;;52.85;24.40;;;;;;;-7.11;74.97;100756.81;341252;29;1092;-78
2022/12/18 00:05:22;;;;;;;50.03;24.15;;;;;;;-7.09;74.85;100750.19;341257;29;1054;-76
2022/12/18 00:05:34;;;;;;;48.38;23.77;;;;;;;-7.15;75.02;100758.28;341328;29;1083;-76
2022/12/18 00:05:50;;;;;;;48.50;23.80;;;;;;;-7.15;74.96;100759.97;340177;29;1084;-78
2022/12/18 00:06:02;;;;;;;48.08;23.70;;;;;;;-7.13;75.17;100764.31;340001;29;1018;-78
2022/12/18 00:06:15;;;;;;;47.25;23.83;;;;;;;-7.11;75.18;100759.34;339869;29;1077;-78
2022/12/18 00:06:29;;;;;;;47.72;23.75;;;;;;;-7.09;75.26;100762.81;339851;29;1301;-78
2022/12/18 00:06:40;;;;;;;49.92;24.40;;;;;;;-7.11;75.13;100760.22;340683;29;1015;-78
2022/12/18 00:06:54;;;;;;;50.10;24.85;;;;;;;-7.09;75.19;100757.78;341310;29;1105;-78
2022/12/18 00:07:06;;;;;;;48.22;24.42;;;;;;;-7.16;75.16;100759.09;341125;29;1178;-78
2022/12/18 00:07:18;;;;;;;48.42;24.25;;;;;;;-7.18;75.34;100754.72;341099;29;1186;-77
2022/12/18 00:07:30;;;;;;;49.00;24.67;;;;;;;-7.15;75.29;100765.88;341167;29;1038;-79
2022/12/18 00:07:44;;;;;;;47.40;24.35;;;;;;;-7.16;75.29;100758.19;341193;28;1150;-76
2022/12/18 00:07:56;;;;;;;47.65;24.80;;;;;;;-7.19;75.35;100758.03;341006;29;1047;-77
2022/12/18 00:08:08;;;;;;;49.38;24.60;;;;;;;-7.16;75.53;100763.25;341126;29;1186;-77
2022/12/18 00:08:20;;;;;;;50.25;24.05;;;;;;;-7.13;75.56;100753.34;341183;29;1135;-76
2022/12/18 00:08:32;;;;;;;50.08;23.98;;;;;;;-7.11;75.51;100761.88;341358;29;1140;-77
2022/12/18 00:08:45;;;;;;;50.78;24.67;;;;;;;-7.10;75.23;100766.13;341092;29;1169;-76
2022/12/18 00:08:58;;;;;;;50.75;25.30;;;;;;;-7.19;75.04;100763.09;341536;29;745;-78
2022/12/18 00:09:10;;;;;;;51.42;24.85;;;;;;;-7.16;75.28;100763.25;341041;29;1061;-78
2022/12/18 00:09:22;;;;;;;51.22;24.70;;;;;;;-7.21;75.43;100764.66;341137;29;1096;-76
2022/12/18 00:09:35;;;;;;;50.72;24.75;;;;;;;-7.26;75.48;100761.88;341328;29;1155;-78
2022/12/18 00:09:51;;;;;;;49.28;24.38;;;;;;;-7.29;75.45;100762.56;341098;29;1237;-78
2022/12/18 00:10:04;;;;;;;50.97;24.80;;;;;;;-7.27;75.77;100758.47;341317;29;1153;-78
2022/12/18 00:10:18;;;;;;;50.17;24.02;;;;;;;-7.21;75.37;100764.66;341166;29;1148;-78
2022/12/18 00:10:30;;;;;;;51.40;24.00;;;;;;;-7.26;75.46;100767.81;341204;29;1108;-77
2022/12/18 00:10:43;;;;;;;53.00;24.65;;;;;;;-7.23;75.49;100767.97;341044;29;1215;-78
2022/12/18 00:11:02;;;;;;;52.65;24.40;;;;;;;-7.26;75.62;100765.28;341359;29;1085;-78
2022/12/18 00:11:20;;;;;;;51.65;24.77;;;;;;;-7.24;75.52;100770.44;341116;29;1038;-78
2022/12/18 00:11:32;;;;;;;48.35;24.90;;;;;;;-7.21;75.57;100765.53;341113;29;1003;-77
2022/12/18 00:11:44;;;;;;;49.72;24.88;;;;;;;-7.22;75.48;100763.81;341168;29;1172;-76
2022/12/18 00:11:56;;;;;;;48.63;24.30;;;;;;;-7.19;75.56;100763.09;340922;29;1567;-76
2022/12/18 00:12:08;;;;;;;49.75;23.88;;;;;;;-7.21;75.64;100763.00;341089;29;1338;-76
2022/12/18 00:12:26;;;;;;;49.55;24.25;;;;;;;-7.19;75.33;100753.00;341196;29;1091;-77
2022/12/18 00:12:41;;;;;;;48.97;24.48;;;;;;;-7.16;75.32;100766.69;341199;29;1059;-78
2022/12/18 00:12:53;;;;;;;50.15;24.55;;;;;;;-7.13;75.42;100765.97;341351;29;1005;-78
2022/12/18 00:13:05;;;;;;;51.05;24.55;;;;;;;-7.11;75.49;100761.88;341535;28;1207;-78
2022/12/18 00:13:21;;;;;;;50.08;24.92;;;;;;;-7.12;75.27;100760.13;341537;28;1061;-78
2022/12/18 00:13:33;;;;;;;52.78;25.52;;;;;;;-7.15;75.33;100765.88;341428;28;1059;-78
2022/12/18 00:13:46;;;;;;;55.50;25.85;;;;;;;-7.15;75.36;100759.97;341664;28;1123;-79
2022/12/18 00:13:59;;;;;;;52.17;24.73;;;;;;;-7.15;75.17;100762.47;341494;28;1063;-77
2022/12/18 00:14:13;;;;;;;48.17;24.48;;;;;;;-7.15;75.19;100762.47;340913;29;1903;-78
2022/12/18 00:14:25;;;;;;;49.38;24.88;;;;;;;-7.21;75.27;100759.63;341312;29;929;-78
2022/12/18 00:14:37;;;;;;;50.72;24.98;;;;;;;-7.18;75.06;100762.28;341105;29;1231;-78
2022/12/18 00:14:52;;;;;;;52.28;24.92;;;;;;;-7.15;75.02;100762.47;341249;29;1205;-77
2022/12/18 00:15:04;;;;;;;55.83;25.33;;;;;;;-7.12;75.21;100766.06;339996;29;1208;-78
2022/12/18 00:15:16;;;;;;;54.03;25.25;;;;;;;-7.10;75.25;100761.06;340012;29;1228;-78
2022/12/18 00:15:28;;;;;;;50.45;25.25;;;;;;;-7.08;75.18;100759.53;339937;29;1236;-78
2022/12/18 00:15:40;;;;;;;49.35;24.50;;;;;;;-7.08;75.13;100762.06;339758;29;1041;-76
2022/12/18 00:15:52;;;;;;;48.05;24.08;;;;;;;-7.08;74.99;100767.13;338750;29;852;-76
2022/12/18 00:16:10;;;;;;;50.00;24.60;;;;;;;-7.06;75.03;100760.50;338688;29;1064;-78
2022/12/18 00:16:24;;;;;;;53.42;25.13;;;;;;;-7.06;74.98;100763.00;339940;29;1050;-76
2022/12/18 00:16:36;;;;;;;51.22;24.95;;;;;;;-7.03;74.83;100755.59;339680;29;1120;-76
2022/12/18 00:16:49;;;;;;;50.92;25.55;;;;;;;-7.02;74.68;100757.34;339843;29;1060;-76
2022/12/18 00:17:00;;;;;;;49.88;25.20;;;;;;;-7.05;74.60;100757.16;339680;29;1084;-78
2022/12/18 00:17:12;;;;;;;49.13;24.45;;;;;;;-7.04;74.92;100757.25;339913;29;1204;-76
2022/12/18 00:17:24;;;;;;;48.55;24.23;;;;;;;-7.03;74.81;100758.13;341169;29;1210;-77
2022/12/18 00:17:36;;;;;;;49.78;24.48;;;;;;;-7.04;74.78;100759.78;339844;29;1157;-76
2022/12/18 00:17:48;;;;;;;49.83;25.10;;;;;;;-7.07;74.57;100761.25;339959;29;1469;-76
2022/12/18 00:18:00;;;;;;;51.40;24.83;;;;;;;-7.08;74.78;100760.41;340944;29;1094;-77
2022/12/18 00:18:12;;;;;;;51.95;24.45;;;;;;;-7.08;74.66;100764.59;341263;29;1655;-78
2022/12/18 00:18:30;;;;;;;52.03;25.30;;;;;;;-7.06;74.97;100765.53;340806;29;1347;-78
2022/12/18 00:18:42;;;;;;;51.92;25.10;;;;;;;-7.05;75.00;100758.03;340881;29;1100;-78
2022/12/18 00:18:56;;;;;;;52.05;25.02;;;;;;;-7.05;74.77;100757.16;341033;29;1031;-78
2022/12/18 00:19:09;;;;;;;50.80;24.58;;;;;;;-7.06;74.68;100755.44;341007;29;986;-78
2022/12/18 00:19:21;;;;;;;49.35;24.02;;;;;;;-7.05;74.47;100758.03;341101;29;1088;-78
2022/12/18 00:19:33;;;;;;;50.85;24.70;;;;;;;-7.04;74.92;100758.91;341120;29;1054;-78
2022/12/18 00:19:45;;;;;;;54.03;25.35;;;;;;;-7.09;74.58;100763.69;341097;29;1205;-78
2022/12/18 00:19:57;;;;;;;53.10;25.13;;;;;;;-7.05;74.43;100757.16;341015;29;1054;-78
2022/12/18 00:20:09;;;;;;;55.17;24.35;;;;;;;-7.04;74.59;100756.38;340993;29;1096;-79
2022/12/18 00:20:25;;;;;;;54.75;24.02;;;;;;;-7.05;74.71;100754.63;341211;28;1120;-78
2022/12/18 00:20:39;;;;;;;52.30;24.80;;;;;;;-7.05;74.56;100762.22;341596;28;1091;-78
2022/12/18 00:20:51;;;;;;;52.50;24.98;;;;;;;-7.05;74.47;100757.16;341514;28;999;-78
2022/12/18 00:21:07;;;;;;;52.53;24.73;;;;;;;-7.06;74.54;100755.44;341190;29;1089;-79
2022/12/18 00:21:20;;;;;;;50.22;24.77;;;;;;;-7.04;74.78;100753.88;341231;29;991;-77
2022/12/18 00:21:33;;;;;;;46.58;24.35;;;;;;;-7.04;74.66;100753.88;341009;29;1161;-77
2022/12/18 00:21:45;;;;;;;46.67;24.30;;;;;;;-7.04;74.78;100753.88;340998;29;1043;-77
2022/12/18 00:21:58;;;;;;;49.63;24.55;;;;;;;-7.05;74.25;100754.63;341086;29;1015;-77
2022/12/18 00:22:10;;;;;;;51.67;24.60;;;;;;;-7.04;74.48;100753.88;340992;29;1067;-77
2022/12/18 00:22:22;;;;;;;51.25;24.15;;;;;;;-7.03;74.19;100753.06;341068;29;1059;-77
2022/12/18 00:22:34;;;;;;;50.67;24.33;;;;;;;-7.14;74.62;100755.00;341287;29;1184;-78
2022/12/18 00:22:46;;;;;;;51.20;24.55;;;;;;;-7.09;74.56;100760.31;341227;29;1138;-79
2022/12/18 00:22:58;;;;;;;49.60;24.58;;;;;;;-7.09;74.35;100760.31;339745;29;1236;-77
2022/12/18 00:23:10;;;;;;;49.85;24.88;;;;;;;-7.08;74.66;100762.06;339839;29;1148;-77
2022/12/18 00:23:23;;;;;;;51.17;24.75;;;;;;;-7.07;74.79;100761.25;340043;29;1225;-77
2022/12/18 00:23:36;;;;;;;52.50;24.63;;;;;;;-7.07;74.59;100764.66;339700;29;1020;-78
2022/12/18 00:23:50;;;;;;;50.97;24.50;;;;;;;-7.06;74.47;100761.34;339816;29;1068;-78
2022/12/18 00:24:02;;;;;;;50.85;24.55;;;;;;;-7.05;74.71;100762.22;340148;29;1206;-78
2022/12/18 00:24:15;;;;;;;49.30;24.00;;;;;;;-7.04;74.39;100754.72;339599;29;1354;-78
2022/12/18 00:24:27;;;;;;;50.85;24.17;;;;;;;-7.03;74.60;100755.59;339715;29;1024;-78
2022/12/18 00:24:39;;;;;;;49.80;24.65;;;;;;;-7.02;74.86;100759.88;339760;29;1038;-78
2022/12/18 00:24:51;;;;;;;48.88;24.65;;;;;;;-7.03;74.34;100751.41;339826;29;1060;-78
2022/12/18 00:25:04;;;;;;;51.00;24.52;;;;;;;-7.02;74.42;100759.88;340643;29;1072;-78
2022/12/18 00:25:16;;;;;;;50.60;24.88;;;;;;;-7.02;74.35;100754.81;340367;29;738;-78
2022/12/18 00:25:29;;;;;;;52.92;25.30;;;;;;;-7.01;74.40;100754.00;340679;29;1069;-77
2022/12/18 00:25:41;;;;;;;50.45;24.48;;;;;;;-7.02;74.40;100757.34;341347;29;1023;-78
2022/12/18 00:25:54;;;;;;;52.97;24.83;;;;;;;-7.02;74.47;100757.34;341152;29;1112;-78
2022/12/18 00:26:10;;;;;;;50.75;24.63;;;;;;;-7.01;74.23;100755.69;341524;29;1047;-78
2022/12/18 00:26:25;;;;;;;50.97;24.55;;;;;;;-7.00;74.15;100755.78;339777;29;1218;-78
2022/12/18 00:26:38;;;;;;;50.17;24.98;;;;;;;-7.04;74.40;100759.78;340279;29;1019;-78
2022/12/18 00:26:50;;;;;;;51.90;25.40;;;;;;;-7.04;74.46;100756.38;339693;29;1152;-78
2022/12/18 00:27:02;;;;;;;54.85;25.17;;;;;;;-7.04;74.10;100756.38;339665;29;1084;-78
2022/12/18 00:27:14;;;;;;;53.97;25.00;;;;;;;-7.03;74.43;100755.59;339713;29;1213;-77
2022/12/18 00:27:26;;;;;;;50.10;24.25;;;;;;;-7.03;74.34;100758.97;340846;29;1241;-77
2022/12/18 00:27:38;;;;;;;49.33;23.60;;;;;;;-7.01;74.35;100756.53;341469;29;921;-79
2022/12/18 00:27:50;;;;;;;48.22;23.00;;;;;;;-7.02;74.41;100754.81;340938;29;1141;-79
2022/12/18 00:28:03;;;;;;;47.80;23.50;;;;;;;-7.01;74.54;100754.00;340845;29;1077;-78
2022/12/18 00:28:15;;;;;;;48.88;24.20;;;;;;;-7.00;74.14;100760.81;341202;29;1160;-78
2022/12/18 00:28:27;;;;;;;52.08;24.60;;;;;;;-6.99;74.26;100757.50;341253;29;1048;-77
2022/12/18 00:28:39;;;;;;;53.17;24.67;;;;;;;-6.99;74.23;100757.50;341196;29;1048;-78
2022/12/18 00:28:52;;;;;;;51.13;24.38;;;;;;;-6.97;74.26;100755.94;341150;29;1076;-78
2022/12/18 00:29:07;;;;;;;47.25;24.17;;;;;;;-6.97;74.30;100758.44;341808;29;769;-78
2022/12/18 00:29:19;;;;;;;47.95;24.33;;;;;;;-6.94;74.13;100760.28;341027;29;1071;-78
2022/12/18 00:29:31;;;;;;;50.10;24.42;;;;;;;-6.93;74.30;100757.84;341171;29;1065;-79
2022/12/18 00:29:43;;;;;;;50.03;24.42;;;;;;;-6.92;74.33;100753.66;341325;28;850;-78
2022/12/18 00:29:55;;;;;;;50.33;24.55;;;;;;;-6.98;73.96;100758.34;341219;29;1203;-79
2022/12/18 00:30:08;;;;;;;51.25;24.75;;;;;;;-6.99;74.08;100760.03;339900;29;1036;-79
2022/12/18 00:30:20;;;;;;;51.10;24.58;;;;;;;-6.98;74.35;100756.72;340011;29;1108;-79
2022/12/18 00:30:32;;;;;;;51.30;24.40;;;;;;;-6.97;74.14;100760.97;339995;29;1229;-78
2022/12/18 00:30:44;;;;;;;54.45;24.63;;;;;;;-6.97;74.04;100762.66;340038;29;1132;-78
2022/12/18 00:31:04;;;;;;;53.58;24.58;;;;;;;-6.99;74.06;100760.03;339916;29;1121;-78
2022/12/18 00:31:19;;;;;;;50.05;24.90;;;;;;;-6.98;74.03;100759.25;340077;29;1067;-78
2022/12/18 00:31:32;;;;;;;50.53;24.50;;;;;;;-6.97;74.12;100760.97;339840;29;1070;-78
2022/12/18 00:31:44;;;;;;;51.70;24.73;;;;;;;-7.00;74.26;100760.81;340134;29;1047;-79
2022/12/18 00:31:56;;;;;;;53.83;25.05;;;;;;;-6.98;74.06;100759.25;339914;29;1036;-78
2022/12/18 00:32:08;;;;;;;50.25;24.50;;;;;;;-6.98;74.25;100761.78;340093;29;1050;-78
2022/12/18 00:32:20;;;;;;;49.92;23.92;;;;;;;-6.96;74.36;100759.31;340735;29;1134;-78
2022/12/18 00:32:32;;;;;;;51.35;24.15;;;;;;;-6.98;74.31;100761.78;339734;29;1157;-78
2022/12/18 00:32:44;;;;;;;52.13;25.48;;;;;;;-6.99;73.93;100757.50;339621;29;1161;-79
2022/12/18 00:32:57;;;;;;;50.72;25.08;;;;;;;-6.97;74.28;100765.16;339878;29;1226;-77
2022/12/18 00:33:09;;;;;;;51.00;24.30;;;;;;;-7.00;74.18;100762.47;339795;29;1186;-78
2022/12/18 00:33:21;;;;;;;49.88;24.38;;;;;;;-7.00;74.57;100760.81;339901;29;1027;-77
2022/12/18 00:33:34;;;;;;;49.20;24.63;;;;;;;-7.01;74.32;100759.06;339857;29;1029;-77
2022/12/18 00:33:47;;;;;;;49.25;24.85;;;;;;;-7.04;74.23;100763.97;339851;29;1243;-77
2022/12/18 00:34:04;;;;;;;53.05;24.48;;;;;;;-7.07;73.98;100761.25;340013;29;1048;-77
2022/12/18 00:34:16;;;;;;;52.83;24.30;;;;;;;-7.09;74.04;100761.16;339669;29;1340;-77
2022/12/18 00:34:28;;;;;;;50.17;24.35;;;;;;;-7.08;73.91;100772.16;339644;29;1086;-79
2022/12/18 00:34:40;;;;;;;53.20;24.58;;;;;;;-7.18;73.73;100769.88;339804;29;1107;-78
2022/12/18 00:34:52;;;;;;;52.85;24.15;;;;;;;-7.26;73.59;100770.34;341026;29;1144;-78
2022/12/18 00:35:06;;;;;;;55.25;24.42;;;;;;;-7.43;73.90;100764.31;341286;29;1079;-78
2022/12/18 00:35:18;;;;;;;53.70;24.73;;;;;;;-7.41;73.85;100766.06;341071;29;1060;-79
2022/12/18 00:35:31;;;;;;;52.13;24.52;;;;;;;-7.45;74.04;100767.53;340988;29;1112;-78
2022/12/18 00:35:43;;;;;;;49.90;24.27;;;;;;;-7.42;74.20;100765.19;341182;29;1234;-76
2022/12/18 00:36:07;;;;;;;51.55;24.60;;;;;;;-7.45;74.20;100775.09;341154;29;1073;-78
2022/12/18 00:36:21;;;;;;;53.20;24.23;;;;;;;-7.47;74.05;100776.66;341284;29;1181;-76
2022/12/18 00:36:34;;;;;;;49.47;24.27;;;;;;;-7.54;74.49;100777.13;341129;29;881;-78
2022/12/18 00:36:47;;;;;;;49.67;24.70;;;;;;;-7.50;74.94;100774.00;340929;29;1076;-78
2022/12/18 00:36:59;;;;;;;49.67;24.35;;;;;;;-7.55;74.39;100773.69;341191;29;1063;-78
2022/12/18 00:37:11;;;;;;;49.63;24.02;;;;;;;-7.67;74.50;100773.00;341214;28;1184;-78
2022/12/18 00:37:31;;;;;;;49.17;24.48;;;;;;;-7.68;74.88;100772.13;341076;29;1064;-77
2022/12/18 00:37:42;;;;;;;48.72;24.55;;;;;;;-7.67;74.82;100773.00;339882;29;1081;-77
2022/12/18 00:37:54;;;;;;;47.35;24.08;;;;;;;-7.70;74.94;100773.69;339778;29;1039;-77
2022/12/18 00:38:06;;;;;;;47.30;24.42;;;;;;;-7.67;75.13;100771.31;339828;29;1120;-78
2022/12/18 00:38:18;;;;;;;50.65;24.88;;;;;;;-7.63;75.11;100773.25;339589;29;1237;-79
2022/12/18 00:38:30;;;;;;;52.60;24.75;;;;;;;-7.61;75.10;100769.97;340014;29;844;-78
2022/12/18 00:38:43;;;;;;;52.60;24.33;;;;;;;-7.65;75.14;100772.28;339895;29;1095;-78
2022/12/18 00:38:57;;;;;;;52.97;24.15;;;;;;;-7.63;75.24;100774.91;339979;29;1110;-77
2022/12/18 00:39:10;;;;;;;51.72;24.60;;;;;;;-7.62;75.37;100776.66;339764;29;1081;-77
2022/12/18 00:39:22;;;;;;;51.00;24.88;;;;;;;-7.65;75.18;100779.84;339919;29;1068;-78
2022/12/18 00:39:34;;;;;;;50.67;24.95;;;;;;;-7.68;75.10;100776.31;341312;29;1051;-78
2022/12/18 00:39:48;;;;;;;50.97;25.13;;;;;;;-7.73;75.37;100773.50;341041;29;1215;-78
2022/12/18 00:40:00;;;;;;;50.53;25.30;;;;;;;-7.75;75.26;100764.97;340821;29;1175;-78
2022/12/18 00:40:12;;;;;;;52.75;25.35;;;;;;;-7.72;75.43;100775.25;339866;29;1099;-78
2022/12/18 00:40:24;;;;;;;52.80;24.98;;;;;;;-7.73;75.44;100773.50;339749;29;1091;-78
2022/12/18 00:40:36;;;;;;;52.78;24.77;;;;;;;-7.75;75.50;100769.16;341008;29;732;-78
2022/12/18 00:40:48;;;;;;;50.72;24.48;;;;;;;-7.79;75.63;100777.31;341076;29;1189;-78
2022/12/18 00:41:00;;;;;;;50.80;24.67;;;;;;;-7.82;75.67;100772.97;341150;29;1188;-78
2022/12/18 00:41:13;;;;;;;49.88;24.35;;;;;;;-7.79;75.51;100768.09;341160;29;1218;-78
2022/12/18 00:42:57;;;;;;;53.85;24.77;;;;;;;-7.72;76.36;100769.34;341134;29;1213;-77
2022/12/18 00:43:09;;;;;;;54.30;25.80;;;;;;;-7.73;76.40;100772.63;340977;29;1194;-77
2022/12/18 00:43:21;;;;;;;53.58;25.50;;;;;;;-7.74;76.45;100766.72;340989;29;1019;-77
2022/12/18 00:43:34;;;;;;;54.38;25.92;;;;;;;-7.69;76.48;100770.38;340954;29;1087;-77
2022/12/18 00:43:46;;;;;;;54.13;25.52;;;;;;;-7.67;76.52;100768.81;341112;29;1045;-78
2022/12/18 00:43:58;;;;;;;53.80;25.35;;;;;;;-7.66;76.61;100770.56;341178;29;1158;-78
2022/12/18 00:44:13;;;;;;;54.45;24.75;;;;;;;-7.63;76.65;100770.72;341001;29;1071;-78
2022/12/18 00:44:25;;;;;;;52.50;24.33;;;;;;;-7.59;76.56;100770.91;341160;29;1123;-78
2022/12/18 00:44:37;;;;;;;50.03;24.30;;;;;;;-7.65;76.09;100767.25;339695;29;1201;-77
2022/12/18 00:44:49;;;;;;;49.20;23.92;;;;;;;-7.72;76.15;100762.63;339915;29;1084;-77
2022/12/18 00:45:00;;;;;;;49.88;24.33;;;;;;;-7.74;76.46;100766.72;339591;29;1117;-77
2022/12/18 00:45:13;;;;;;;49.33;24.80;;;;;;;-7.68;76.49;100767.06;339568;29;1024;-78
2022/12/18 00:45:28;;;;;;;49.95;23.95;;;;;;;-7.74;76.62;100766.72;340548;29;1068;-77
2022/12/18 00:45:41;;;;;;;47.80;23.25;;;;;;;-7.71;76.61;100761.84;341144;29;1072;-78
2022/12/18 00:45:53;;;;;;;48.10;23.65;;;;;;;-7.72;76.77;100767.69;341138;29;1293;-77
2022/12/18 00:46:06;;;;;;;49.95;24.13;;;;;;;-7.65;76.65;100766.38;341062;29;1207;-78
2022/12/18 00:46:18;;;;;;;47.80;23.95;;;;;;;-7.64;76.48;100763.94;341224;29;1063;-78
2022/12/18 00:46:30;;;;;;;51.47;24.42;;;;;;;-7.60;76.46;100765.00;341278;29;1172;-78
2022/12/18 00:46:43;;;;;;;54.00;24.40;;;;;;;-7.57;76.57;100765.16;340927;29;1060;-78
2022/12/18 00:46:56;;;;;;;54.58;24.45;;;;;;;-7.55;76.63;100763.59;341163;29;1096;-77
2022/12/18 00:47:08;;;;;;;52.05;24.98;;;;;;;-7.57;76.42;100766.81;341943;28;1052;-78
2022/12/18 00:47:20;;;;;;;54.50;25.05;;;;;;;-7.54;76.48;100765.34;341118;29;1204;-78
2022/12/18 00:47:32;;;;;;;54.72;24.90;;;;;;;-7.56;76.65;100766.91;340866;29;1060;-78
2022/12/18 00:47:43;;;;;;;52.08;24.10;;;;;;;-7.56;76.31;100766.06;340659;29;1320;-78
2022/12/18 00:47:56;;;;;;;48.90;24.30;;;;;;;-7.56;76.48;100768.59;340945;29;1186;-77
2022/12/18 00:48:08;;;;;;;49.65;24.90;;;;;;;-7.53;76.42;100761.16;340898;29;1155;-78
2022/12/18 00:48:20;;;;;;;48.75;25.40;;;;;;;-7.51;76.43;100770.56;340702;29;1066;-78
2022/12/18 00:48:32;;;;;;;50.45;25.80;;;;;;;-7.53;76.62;100762.03;340851;29;1136;-78
2022/12/18 00:48:44;;;;;;;51.05;25.67;;;;;;;-7.56;76.62;100766.06;341255;29;1096;-78
2022/12/18 00:48:56;;;;;;;51.83;25.42;;;;;;;-7.59;76.66;100763.34;341194;29;1222;-78
2022/12/18 00:49:08;;;;;;;51.38;24.83;;;;;;;-7.61;76.49;100762.38;341241;29;1067;-78
2022/12/18 00:49:20;;;;;;;51.78;24.80;;;;;;;-7.58;76.49;100762.56;341340;29;822;-78
2022/12/18 00:49:32;;;;;;;51.03;23.88;;;;;;;-7.55;76.69;100772.84;340869;29;1092;-78
2022/12/18 00:49:44;;;;;;;53.20;23.58;;;;;;;-7.53;76.64;100767.09;339678;29;1136;-78
2022/12/18 00:49:56;;;;;;;51.50;23.35;;;;;;;-7.50;76.60;100763.88;340158;29;1186;-78
2022/12/18 00:50:09;;;;;;;48.35;24.00;;;;;;;-7.49;76.37;100773.19;339671;29;1192;-78
2022/12/18 00:50:22;;;;;;;49.78;24.23;;;;;;;-7.46;76.53;100779.28;340720;29;1092;-77
2022/12/18 00:50:34;;;;;;;52.05;24.52;;;;;;;-7.44;76.57;100769.28;340880;29;1036;-79
2022/12/18 00:50:48;;;;;;;49.90;24.48;;;;;;;-7.43;76.51;100771.00;340911;29;1159;-78
2022/12/18 00:51:00;;;;;;;48.53;24.35;;;;;;;-7.55;76.45;100773.69;340941;29;1264;-77
2022/12/18 00:51:12;;;;;;;49.33;24.50;;;;;;;-7.60;76.33;100776.75;341061;29;1043;-78
2022/12/18 00:51:25;;;;;;;50.20;24.63;;;;;;;-7.55;76.45;100772.84;340946;29;1182;-78
2022/12/18 00:51:36;;;;;;;47.97;24.50;;;;;;;-7.55;76.61;100772.84;341209;29;1069;-78
2022/12/18 00:51:49;;;;;;;48.08;24.85;;;;;;;-7.52;76.46;100778.06;341529;29;1099;-78
2022/12/18 00:52:01;;;;;;;50.08;24.40;;;;;;;-7.49;76.62;100778.22;340929;29;1052;-77
2022/12/18 00:52:12;;;;;;;50.47;24.20;;;;;;;-7.46;76.41;100773.38;340880;29;1061;-78
2022/12/18 00:52:24;;;;;;;49.40;23.67;;;;;;;-7.51;76.20;100764.66;341280;29;1066;-78
2022/12/18 00:52:39;;;;;;;50.55;24.80;;;;;;;-7.56;76.27;100771.09;341304;29;856;-78
2022/12/18 00:52:52;;;;;;;50.75;25.30;;;;;;;-7.54;76.04;100774.59;340980;29;1040;-78
2022/12/18 00:53:04;;;;;;;48.42;24.55;;;;;;;-7.52;75.97;100773.03;341245;28;1241;-78
2022/12/18 00:53:16;;;;;;;50.67;25.02;;;;;;;-7.50;75.74;100766.41;341292;28;1110;-77
2022/12/18 00:53:28;;;;;;;53.20;24.85;;;;;;;-7.48;76.02;100767.38;341290;28;1022;-78
2022/12/18 00:53:41;;;;;;;52.50;24.70;;;;;;;-7.46;76.17;100770.84;341325;28;1015;-78
2022/12/18 00:53:53;;;;;;;53.45;24.10;;;;;;;-7.44;76.20;100772.69;340973;29;1062;-78
2022/12/18 00:54:05;;;;;;;52.83;24.02;;;;;;;-7.42;76.10;100770.25;341098;29;1075;-78
2022/12/18 00:54:17;;;;;;;51.30;24.30;;;;;;;-7.40;75.93;100777.88;341117;29;1438;-78
2022/12/18 00:54:29;;;;;;;51.28;24.52;;;;;;;-7.37;75.95;100768.84;341317;29;766;-78
2022/12/18 00:54:41;;;;;;;52.75;24.90;;;;;;;-7.36;76.01;100773.13;340941;29;1222;-78
2022/12/18 00:54:53;;;;;;;52.03;24.63;;;;;;;-7.35;75.98;100772.31;339765;29;1112;-77
2022/12/18 00:55:05;;;;;;;51.33;24.42;;;;;;;-7.33;75.90;100770.75;339882;29;1122;-77
2022/12/18 00:55:18;;;;;;;52.50;24.58;;;;;;;-7.33;75.79;100773.28;339517;29;1054;-79
2022/12/18 00:55:30;;;;;;;50.42;24.13;;;;;;;-7.31;75.74;100768.31;339574;29;1206;-78
2022/12/18 00:55:42;;;;;;;49.53;23.63;;;;;;;-7.29;75.91;100772.66;339600;29;1060;-77
2022/12/18 00:55:54;;;;;;;49.30;24.08;;;;;;;-7.27;75.78;100771.09;340246;29;1697;-78
2022/12/18 00:56:06;;;;;;;49.13;24.50;;;;;;;-7.29;75.71;100774.34;341220;29;1092;-78
2022/12/18 00:56:21;;;;;;;49.63;24.67;;;;;;;-7.28;75.62;100766.84;341237;29;1088;-78
2022/12/18 00:56:36;;;;;;;50.78;24.30;;;;;;;-7.26;75.26;100770.34;341502;29;826;-78
2022/12/18 00:56:58;;;;;;;49.53;24.25;;;;;;;-7.27;75.52;100765.19;341333;29;1238;-78
2022/12/18 00:57:10;;;;;;;51.63;24.38;;;;;;;-7.25;75.55;100769.53;341251;29;1043;-78
2022/12/18 00:57:22;;;;;;;51.15;24.13;;;;;;;-7.24;75.62;100768.75;341229;29;1079;-78
2022/12/18 00:57:34;;;;;;;48.97;24.10;;;;;;;-7.21;75.45;100765.53;341179;29;1065;-78
2022/12/18 00:57:46;;;;;;;48.70;24.20;;;;;;;-7.21;75.56;100759.63;341134;29;1477;-78
2022/12/18 00:57:58;;;;;;;48.17;24.02;;;;;;;-7.19;75.43;100765.63;341172;29;1902;-78
2022/12/18 00:58:12;;;;;;;48.28;24.23;;;;;;;-7.21;75.37;100764.66;341075;29;1606;-78
2022/12/18 00:58:24;;;;;;;48.90;24.38;;;;;;;-7.36;74.83;100764.66;340881;29;1044;-77
2022/12/18 00:58:36;;;;;;;46.83;23.85;;;;;;;-7.35;74.92;100767.28;341081;29;1062;-78
2022/12/18 00:58:48;;;;;;;47.95;24.50;;;;;;;-7.31;74.91;100771.72;341273;29;1065;-78
2022/12/18 00:59:00;;;;;;;49.33;24.80;;;;;;;-7.31;75.08;100768.31;341027;29;1141;-78
2022/12/18 00:59:12;;;;;;;50.53;25.25;;;;;;;-7.29;75.09;100766.75;340944;29;1260;-78
2022/12/18 00:59:24;;;;;;;50.38;24.95;;;;;;;-7.38;74.69;100769.63;341309;28;1115;-78
2022/12/18 00:59:36;;;;;;;50.83;24.52;;;;;;;-7.36;74.72;100774.75;340945;29;1199;-77
2022/12/18 00:59:48;;;;;;;56.00;24.92;;;;;;;-7.35;74.58;100767.28;340883;29;1052;-78
2022/12/18 01:00:00;;;;;;;55.75;25.15;;;;;;;-7.37;74.57;100768.84;340945;29;1071;-78
2022/12/18 01:00:14;;;;;;;47.92;24.40;;;;;;;-7.36;74.62;100770.59;341461;29;1048;-79
2022/12/18 01:00:26;;;;;;;47.08;23.02;;;;;;;-7.46;74.56;100760.75;339832;29;1100;-77
2022/12/18 01:00:38;;;;;;;48.58;23.77;;;;;;;-7.41;74.23;100766.91;339660;29;1120;-79
2022/12/18 01:00:50;;;;;;;46.03;23.52;;;;;;;-7.38;74.21;100767.13;339591;29;1073;-77
2022/12/18 01:01:04;;;;;;;46.42;23.73;;;;;;;-7.33;74.58;100764.84;339982;29;739;-78
2022/12/18 01:01:17;;;;;;;46.67;23.48;;;;;;;-7.34;74.46;100763.13;339731;29;1103;-78